createdAt,value
2018-09-18T00:00:10.946Z,56.06
2018-09-18T00:05:29.462Z,55.29
2018-09-18T00:10:48.135Z,55.88
2018-09-18T00:16:06.729Z,52.10
2018-09-18T00:21:25.273Z,58.32
2018-09-18T00:26:43.809Z,55.31
2018-09-18T00:32:03.028Z,59.13
2018-09-18T00:37:21.859Z,58.73
2018-09-18T00:42:40.662Z,58.73
2018-09-18T00:47:59.283Z,58.49
2018-09-18T00:53:18.554Z,57.87
2018-09-18T00:58:37.254Z,55.00
2018-09-18T01:03:56.330Z,59.21
2018-09-18T01:09:14.904Z,60.01
2018-09-18T01:14:34.942Z,61.14
2018-09-18T01:19:53.505Z,56.17
2018-09-18T01:25:12.240Z,55.14
2018-09-18T01:30:31.394Z,59.36
2018-09-18T01:35:50.129Z,56.08
2018-09-18T01:41:09.279Z,58.08
2018-09-18T01:46:28.406Z,59.40
2018-09-18T01:51:47.025Z,57.28
2018-09-18T01:57:06.331Z,54.45
2018-09-18T02:02:24.846Z,57.94
2018-09-18T02:07:43.350Z,58.64
2018-09-18T02:13:01.903Z,58.35
2018-09-18T02:18:20.630Z,57.16
2018-09-18T02:23:39.133Z,60.48
2018-09-18T02:28:58.128Z,64.22
2018-09-18T02:34:16.655Z,61.88
2018-09-18T02:39:35.142Z,57.17
2018-09-18T02:44:53.650Z,61.69
2018-09-18T02:50:12.927Z,61.99
2018-09-18T02:55:31.460Z,60.00
2018-09-18T03:00:50.615Z,62.41
2018-09-18T03:06:09.437Z,62.25
2018-09-18T03:11:27.963Z,60.16
2018-09-18T03:16:47.905Z,64.60
2018-09-18T03:22:06.404Z,61.71
2018-09-18T03:27:25.356Z,60.05
2018-09-18T03:32:43.839Z,62.56
2018-09-18T03:38:08.719Z,62.00
2018-09-18T03:43:27.368Z,62.85
2018-09-18T03:48:46.035Z,57.96
2018-09-18T03:54:04.668Z,62.59
2018-09-18T03:59:23.783Z,63.38
2018-09-18T04:04:42.439Z,61.68
2018-09-18T04:10:01.787Z,58.99
2018-09-18T04:15:20.806Z,55.54
2018-09-18T04:20:39.558Z,56.29
2018-09-18T04:25:58.421Z,59.16
2018-09-18T04:31:18.149Z,57.88
2018-09-18T04:36:37.038Z,54.98
2018-09-18T04:41:56.391Z,57.53
2018-09-18T04:47:14.963Z,56.31
2018-09-18T04:52:33.597Z,60.46
2018-09-18T04:57:52.295Z,58.99
2018-09-18T05:03:12.318Z,57.14
2018-09-18T05:08:31.121Z,57.50
2018-09-18T05:13:50.357Z,55.98
2018-09-18T05:19:08.865Z,61.57
2018-09-18T05:24:27.394Z,59.69
2018-09-18T05:29:45.915Z,59.66
2018-09-18T05:35:04.587Z,60.64
2018-09-18T05:40:23.379Z,54.44
2018-09-18T05:45:42.116Z,57.69
2018-09-18T05:51:00.646Z,59.57
2018-09-18T05:56:19.799Z,57.63
2018-09-18T06:01:39.238Z,59.15
2018-09-18T06:06:57.798Z,53.50
2018-09-18T06:12:16.312Z,53.42
2018-09-18T06:17:34.901Z,53.07
2018-09-18T06:22:53.408Z,55.55
2018-09-18T06:28:12.861Z,55.76
2018-09-18T06:33:31.645Z,52.71
2018-09-18T06:38:50.188Z,54.95
2018-09-18T06:44:08.753Z,49.61
2018-09-18T06:49:27.556Z,49.04
2018-09-18T06:54:46.105Z,50.83
2018-09-18T07:00:05.314Z,48.71
2018-09-18T07:05:23.799Z,48.53
2018-09-18T07:10:42.315Z,45.24
2018-09-18T07:16:00.879Z,41.65
2018-09-18T07:21:19.379Z,41.74
2018-09-18T07:26:37.891Z,39.25
2018-09-18T07:31:56.378Z,36.43
2018-09-18T07:37:15.536Z,36.64
2018-09-18T07:42:34.909Z,37.40
2018-09-18T07:47:54.034Z,36.49
2018-09-18T07:53:12.753Z,36.86
2018-09-18T07:58:31.295Z,33.84
2018-09-18T08:03:50.014Z,35.34
2018-09-18T08:09:11.193Z,33.24
2018-09-18T08:14:29.732Z,32.72
2018-09-18T08:19:48.355Z,31.06
2018-09-18T08:25:08.040Z,31.57
2018-09-18T08:30:26.612Z,30.85
2018-09-18T08:35:45.144Z,31.15
2018-09-18T08:41:03.959Z,29.66
2018-09-18T08:46:22.518Z,30.08
2018-09-18T08:51:41.837Z,28.04
2018-09-18T08:57:00.325Z,29.68
2018-09-18T09:02:18.947Z,31.39
2018-09-18T09:07:37.495Z,31.03
2018-09-18T09:12:55.901Z,28.49
2018-09-18T09:18:14.468Z,29.75
2018-09-18T09:23:33.179Z,29.00
2018-09-18T09:28:51.727Z,26.27
2018-09-18T09:34:10.244Z,26.17
2018-09-18T09:39:29.767Z,28.96
2018-09-18T09:44:48.286Z,30.33
2018-09-18T09:50:07.895Z,29.74
2018-09-18T09:55:26.439Z,29.60
2018-09-18T10:00:50.340Z,34.67
2018-09-18T10:06:08.899Z,34.62
2018-09-18T10:11:27.514Z,36.47
2018-09-18T10:16:46.754Z,36.82
2018-09-18T10:22:05.316Z,37.76
2018-09-18T10:27:23.877Z,37.54
2018-09-18T10:32:42.523Z,36.79
2018-09-18T10:38:08.462Z,36.94
2018-09-18T10:43:27.001Z,37.96
2018-09-18T10:48:50.175Z,37.47
2018-09-18T10:54:08.716Z,39.12
2018-09-18T10:59:27.288Z,36.88
2018-09-18T11:04:45.984Z,38.19
2018-09-18T11:10:05.895Z,35.85
2018-09-18T11:15:31.273Z,36.71
2018-09-18T11:20:50.393Z,35.34
2018-09-18T11:26:08.934Z,33.77
2018-09-18T11:31:27.644Z,33.18
2018-09-18T11:36:46.279Z,30.90
2018-09-18T11:42:04.804Z,29.28
2018-09-18T11:47:23.352Z,28.61
2018-09-18T11:52:41.975Z,29.41
2018-09-18T11:58:00.503Z,28.31
2018-09-18T12:03:19.047Z,28.01
2018-09-18T12:08:37.675Z,27.62
2018-09-18T12:13:56.202Z,28.08
2018-09-18T12:19:14.924Z,26.59
2018-09-18T12:24:33.484Z,28.18
2018-09-18T12:29:52.065Z,25.99
2018-09-18T12:35:10.635Z,25.83
2018-09-18T12:40:29.110Z,24.66
2018-09-18T12:45:47.676Z,22.98
2018-09-18T12:51:08.067Z,23.42
2018-09-18T12:56:26.676Z,23.93
2018-09-18T13:01:46.772Z,23.43
2018-09-18T13:07:06.159Z,23.50
2018-09-18T13:12:25.202Z,22.34
2018-09-18T13:17:44.459Z,23.54
2018-09-18T13:23:03.288Z,23.66
2018-09-18T13:28:21.897Z,23.38
2018-09-18T13:33:41.156Z,23.90
2018-09-18T13:38:59.662Z,23.68
2018-09-18T13:44:18.335Z,22.82
2018-09-18T13:49:36.946Z,22.86
2018-09-18T13:54:55.548Z,23.68
2018-09-18T14:00:14.163Z,23.11
2018-09-18T14:05:32.864Z,22.83
2018-09-18T14:10:51.401Z,23.86
2018-09-18T14:16:10.444Z,23.15
2018-09-18T14:21:28.967Z,24.30
2018-09-18T14:26:47.607Z,24.76
2018-09-18T14:32:07.092Z,24.63
2018-09-18T14:37:25.594Z,25.33
2018-09-18T14:42:44.082Z,26.12
2018-09-18T14:48:02.607Z,26.25
2018-09-18T14:53:21.164Z,25.61
2018-09-18T14:58:46.486Z,25.76
2018-09-18T15:04:05.062Z,26.61
2018-09-18T15:09:23.569Z,27.13
2018-09-18T15:14:42.171Z,25.70
2018-09-18T15:20:00.782Z,24.36
2018-09-18T15:25:19.961Z,25.30
2018-09-18T15:30:38.502Z,26.09
2018-09-18T15:35:57.750Z,26.24
2018-09-18T15:41:16.801Z,26.81
2018-09-18T15:46:36.661Z,26.63
2018-09-18T15:51:55.484Z,28.41
2018-09-18T15:57:14.330Z,27.97
2018-09-18T16:02:32.896Z,28.40
2018-09-18T16:07:51.512Z,28.57
2018-09-18T16:13:10.951Z,29.78
2018-09-18T16:18:30.164Z,29.94
2018-09-18T16:23:48.792Z,31.47
2018-09-18T16:29:07.373Z,31.80
2018-09-18T16:34:26.043Z,32.57
2018-09-18T16:39:44.579Z,33.81
2018-09-18T16:45:03.219Z,34.60
2018-09-18T16:50:22.411Z,35.18
2018-09-18T16:55:40.978Z,36.30
2018-09-18T17:01:00.201Z,36.28
2018-09-18T17:06:19.283Z,37.12
2018-09-18T17:11:38.235Z,37.23
2018-09-18T17:16:56.862Z,38.32
2018-09-18T17:22:15.610Z,37.98
2018-09-18T17:27:34.163Z,39.99
2018-09-18T17:32:52.751Z,39.98
2018-09-18T17:38:11.287Z,40.11
2018-09-18T17:53:30.061Z,41.20
2018-09-18T18:04:45.795Z,41.61
2018-09-18T18:10:04.131Z,40.97
2018-09-18T18:15:21.971Z,42.18
2018-09-18T18:20:39.766Z,42.48
2018-09-18T18:25:57.489Z,42.03
2018-09-18T18:31:15.902Z,42.72
2018-09-18T18:36:33.637Z,42.42
2018-09-18T18:41:51.400Z,44.99
2018-09-18T18:47:09.252Z,44.38
2018-09-18T18:52:26.975Z,44.68
2018-09-18T18:57:45.341Z,44.51
2018-09-18T19:03:04.078Z,45.19
2018-09-18T19:08:21.818Z,45.33
2018-09-18T19:13:39.575Z,45.30
2018-09-18T19:18:57.965Z,46.20
2018-09-18T19:24:15.734Z,47.55
2018-09-18T19:29:33.499Z,49.97
2018-09-18T19:34:51.393Z,51.65
2018-09-18T19:40:09.387Z,49.29
2018-09-18T19:45:27.237Z,49.74
2018-09-18T19:50:45.504Z,50.48
2018-09-18T19:56:03.291Z,50.60
2018-09-18T20:01:21.040Z,52.14
2018-09-18T20:06:38.787Z,53.04
2018-09-18T20:11:56.990Z,53.34
2018-09-18T20:17:15.502Z,53.60
2018-09-18T20:22:33.973Z,53.99
2018-09-18T20:27:51.772Z,53.85
2018-09-18T20:33:09.943Z,54.08
2018-09-18T20:38:27.748Z,55.84
2018-09-18T20:43:45.462Z,57.50
2018-09-18T20:49:03.202Z,58.76
2018-09-18T20:54:20.993Z,57.74
2018-09-18T20:59:38.748Z,60.51
2018-09-18T21:04:56.471Z,60.22
2018-09-18T21:10:14.237Z,61.37
2018-09-18T21:15:32.033Z,63.42
2018-09-18T21:20:50.026Z,64.73
2018-09-18T21:26:15.927Z,66.12
2018-09-18T21:31:33.739Z,66.43
2018-09-18T21:36:51.514Z,67.62
2018-09-18T21:42:09.280Z,69.40
2018-09-18T21:47:27.259Z,68.34
2018-09-18T21:52:44.979Z,69.50
2018-09-18T21:58:02.930Z,69.84
2018-09-18T22:03:20.659Z,70.45
2018-09-18T22:08:38.575Z,71.03
2018-09-18T22:13:56.260Z,73.08
2018-09-18T22:19:14.033Z,72.62
2018-09-18T22:24:31.762Z,72.56
2018-09-18T22:29:50.147Z,74.14
2018-09-18T22:35:07.925Z,73.98
2018-09-18T22:40:25.715Z,73.54
2018-09-18T22:45:43.524Z,75.55
2018-09-18T22:51:01.222Z,76.39
2018-09-18T22:56:18.978Z,76.97
2018-09-18T23:01:36.824Z,77.85
2018-09-18T23:06:54.643Z,77.94
2018-09-18T23:12:13.031Z,76.58
2018-09-18T23:17:30.911Z,77.67
2018-09-18T23:22:48.707Z,78.18
2018-09-18T23:28:06.471Z,77.65
2018-09-18T23:33:24.238Z,79.11
2018-09-18T23:38:41.989Z,77.77
2018-09-18T23:44:00.577Z,77.22
2018-09-18T23:49:18.360Z,79.09
2018-09-18T23:54:36.122Z,79.22
2018-09-18T23:59:55.065Z,78.89
